createdAt,value
2018-11-25T00:01:10.647Z,6.63
2018-11-25T00:03:45.510Z,6.60
2018-11-25T00:06:19.610Z,7.20
2018-11-25T00:08:53.828Z,6.90
2018-11-25T00:11:27.955Z,7.53
2018-11-25T00:14:02.674Z,8.20
2018-11-25T00:16:37.568Z,7.10
2018-11-25T00:19:11.530Z,8.00
2018-11-25T00:21:46.464Z,6.63
2018-11-25T00:24:20.544Z,6.97
2018-11-25T00:26:55.346Z,7.33
2018-11-25T00:29:29.506Z,6.93
2018-11-25T00:32:03.528Z,7.13
2018-11-25T00:34:38.351Z,7.47
2018-11-25T00:37:12.462Z,6.93
2018-11-25T00:39:46.448Z,7.13
2018-11-25T00:42:20.539Z,8.03
2018-11-25T00:44:55.531Z,6.57
2018-11-25T00:47:29.645Z,6.53
2018-11-25T00:50:03.803Z,5.97
2018-11-25T00:52:37.846Z,7.10
2018-11-25T00:55:12.190Z,5.80
2018-11-25T00:57:46.192Z,6.73
2018-11-25T01:00:20.266Z,6.53
2018-11-25T01:02:54.327Z,5.93
2018-11-25T01:05:28.320Z,5.87
2018-11-25T01:08:02.438Z,6.07
2018-11-25T01:10:36.560Z,5.90
2018-11-25T01:13:10.710Z,6.20
2018-11-25T01:15:45.585Z,6.00
2018-11-25T01:18:19.634Z,5.87
2018-11-25T01:20:53.746Z,5.83
2018-11-25T01:23:27.924Z,5.43
2018-11-25T01:26:02.069Z,5.70
2018-11-25T01:28:36.013Z,6.20
2018-11-25T01:31:10.042Z,5.83
2018-11-25T01:33:44.143Z,6.00
2018-11-25T01:36:18.194Z,5.73
2018-11-25T01:38:52.311Z,5.70
2018-11-25T01:41:26.420Z,6.10
2018-11-25T01:44:00.482Z,4.97
2018-11-25T01:46:34.522Z,6.60
2018-11-25T01:49:09.442Z,6.10
2018-11-25T01:51:43.335Z,6.37
2018-11-25T01:54:17.494Z,5.63
2018-11-25T01:56:51.535Z,6.03
2018-11-25T01:59:25.774Z,6.87
2018-11-25T02:01:59.991Z,6.40
2018-11-25T02:04:34.182Z,6.57
2018-11-25T02:07:08.235Z,6.23
2018-11-25T02:09:42.304Z,6.73
2018-11-25T02:12:16.262Z,6.17
2018-11-25T02:14:50.382Z,5.97
2018-11-25T02:17:24.506Z,5.80
2018-11-25T02:19:58.623Z,7.10
2018-11-25T02:22:32.772Z,6.13
2018-11-25T02:25:07.682Z,6.13
2018-11-25T02:27:41.799Z,6.40
2018-11-25T02:30:15.817Z,6.67
2018-11-25T02:32:50.022Z,6.43
2018-11-25T02:35:24.106Z,5.57
2018-11-25T02:37:58.139Z,5.90
2018-11-25T02:40:32.221Z,6.40
2018-11-25T02:43:06.376Z,6.07
2018-11-25T02:45:40.515Z,6.00
2018-11-25T02:48:14.740Z,7.27
2018-11-25T02:50:48.954Z,6.50
2018-11-25T02:53:22.955Z,5.73
2018-11-25T02:55:57.046Z,6.37
2018-11-25T02:58:31.098Z,6.43
2018-11-25T03:01:06.008Z,7.20
2018-11-25T03:03:40.092Z,6.00
2018-11-25T03:06:14.233Z,6.73
2018-11-25T03:08:48.376Z,6.33
2018-11-25T03:11:22.450Z,6.33
2018-11-25T03:13:56.573Z,6.13
2018-11-25T03:16:30.600Z,6.43
2018-11-25T03:19:04.727Z,6.80
2018-11-25T03:21:39.617Z,6.47
2018-11-25T03:24:13.646Z,6.87
2018-11-25T03:26:47.790Z,5.97
2018-11-25T03:29:21.934Z,6.53
2018-11-25T03:31:56.042Z,6.77
2018-11-25T03:34:30.049Z,6.23
2018-11-25T03:37:04.119Z,6.30
2018-11-25T03:39:38.868Z,6.53
2018-11-25T03:42:13.747Z,6.30
2018-11-25T03:44:47.783Z,6.53
2018-11-25T03:47:21.910Z,6.73
2018-11-25T03:49:55.978Z,6.87
2018-11-25T03:52:38.195Z,7.13
2018-11-25T03:55:12.139Z,6.73
2018-11-25T03:57:46.133Z,6.90
2018-11-25T04:00:20.179Z,6.03
2018-11-25T04:02:54.117Z,6.73
2018-11-25T04:05:28.946Z,7.00
2018-11-25T04:08:02.298Z,6.87
2018-11-25T04:10:37.107Z,6.93
2018-11-25T04:13:11.778Z,7.17
2018-11-25T04:15:45.817Z,6.17
2018-11-25T04:18:20.746Z,6.50
2018-11-25T04:20:54.682Z,6.43
2018-11-25T04:23:28.609Z,6.30
2018-11-25T04:26:02.446Z,6.77
2018-11-25T04:28:36.435Z,6.13
2018-11-25T04:31:10.570Z,6.17
2018-11-25T04:33:45.016Z,6.70
2018-11-25T04:36:19.056Z,7.13
2018-11-25T04:38:53.862Z,6.77
2018-11-25T04:41:28.728Z,6.63
2018-11-25T04:44:04.258Z,6.63
2018-11-25T04:46:38.256Z,6.50
2018-11-25T04:49:12.408Z,7.17
2018-11-25T04:51:46.372Z,6.50
2018-11-25T04:54:20.368Z,6.67
2018-11-25T04:56:54.489Z,6.23
2018-11-25T04:59:28.599Z,6.40
2018-11-25T05:02:10.334Z,7.70
2018-11-25T05:04:44.416Z,6.87
2018-11-25T05:07:18.446Z,6.23
2018-11-25T05:09:52.529Z,7.20
2018-11-25T05:12:26.635Z,7.00
2018-11-25T05:15:00.684Z,5.80
2018-11-25T05:17:34.770Z,6.27
2018-11-25T05:20:08.811Z,6.30
2018-11-25T05:22:42.929Z,6.57
2018-11-25T05:25:17.764Z,6.37
2018-11-25T05:27:51.977Z,5.97
2018-11-25T05:30:26.764Z,6.13
2018-11-25T05:33:00.682Z,5.93
2018-11-25T05:35:34.827Z,5.97
2018-11-25T05:38:08.741Z,6.13
2018-11-25T05:40:42.855Z,6.03
2018-11-25T05:43:16.926Z,6.20
2018-11-25T05:45:51.022Z,6.10
2018-11-25T05:48:25.086Z,6.03
2018-11-25T05:50:58.999Z,5.87
2018-11-25T05:53:33.147Z,6.20
2018-11-25T05:56:07.187Z,6.20
2018-11-25T05:58:41.335Z,6.10
2018-11-25T06:01:15.439Z,6.00
2018-11-25T06:03:58.624Z,5.67
2018-11-25T06:06:33.614Z,6.17
2018-11-25T06:09:08.539Z,6.10
2018-11-25T06:11:42.653Z,6.20
2018-11-25T06:14:16.743Z,6.77
2018-11-25T06:16:50.815Z,5.90
2018-11-25T06:19:24.743Z,6.13
2018-11-25T06:21:59.613Z,6.33
2018-11-25T06:24:33.730Z,6.07
2018-11-25T06:27:07.851Z,6.37
2018-11-25T06:29:42.092Z,5.70
2018-11-25T06:32:16.141Z,6.70
2018-11-25T06:34:50.159Z,5.93
2018-11-25T06:37:24.871Z,5.83
2018-11-25T06:39:59.010Z,5.43
2018-11-25T06:42:33.044Z,6.30
2018-11-25T06:45:07.151Z,6.37
2018-11-25T06:47:41.270Z,6.30
2018-11-25T06:50:15.287Z,6.10
2018-11-25T06:52:49.399Z,6.60
2018-11-25T06:55:23.490Z,6.17
2018-11-25T06:57:57.634Z,5.77
2018-11-25T07:00:31.751Z,6.30
2018-11-25T07:03:05.818Z,12.53
2018-11-25T07:05:39.885Z,10.50
2018-11-25T07:08:13.973Z,9.17
2018-11-25T07:10:48.767Z,8.37
2018-11-25T07:13:23.528Z,8.07
2018-11-25T07:15:57.610Z,7.23
2018-11-25T07:18:31.716Z,6.97
2018-11-25T07:21:05.741Z,7.33
2018-11-25T07:23:39.759Z,6.80
2018-11-25T07:26:13.874Z,6.40
2018-11-25T07:28:48.977Z,7.10
2018-11-25T07:31:23.787Z,6.73
2018-11-25T07:33:57.943Z,7.07
2018-11-25T07:36:31.946Z,6.00
2018-11-25T07:39:06.064Z,6.43
2018-11-25T07:41:40.261Z,6.13
2018-11-25T07:44:14.398Z,6.80
2018-11-25T07:46:48.553Z,6.50
2018-11-25T07:49:22.658Z,6.73
2018-11-25T07:51:56.584Z,6.63
2018-11-25T07:54:30.636Z,7.27
2018-11-25T07:57:04.737Z,6.57
2018-11-25T07:59:38.825Z,6.10
2018-11-25T08:02:12.968Z,7.73
2018-11-25T08:04:47.091Z,8.03
2018-11-25T08:07:21.214Z,7.10
2018-11-25T08:09:55.271Z,7.47
2018-11-25T08:12:30.196Z,7.40
2018-11-25T08:15:04.355Z,7.77
2018-11-25T08:17:38.358Z,7.70
2018-11-25T08:20:12.423Z,7.23
2018-11-25T08:22:46.517Z,7.33
2018-11-25T08:25:20.569Z,7.33
2018-11-25T08:27:55.021Z,7.40
2018-11-25T08:30:29.701Z,7.23
2018-11-25T08:33:03.773Z,6.57
2018-11-25T08:35:37.928Z,6.90
2018-11-25T08:38:11.849Z,7.03
2018-11-25T08:40:45.953Z,6.93
2018-11-25T08:43:20.054Z,7.03
2018-11-25T08:45:54.181Z,6.83
2018-11-25T08:48:28.100Z,7.57
2018-11-25T08:51:02.024Z,7.77
2018-11-25T08:53:36.209Z,7.53
2018-11-25T08:56:10.299Z,7.50
2018-11-25T08:58:44.428Z,7.77
2018-11-25T09:01:18.547Z,7.60
2018-11-25T09:03:52.576Z,7.97
2018-11-25T09:06:44.406Z,8.23
2018-11-25T09:09:18.540Z,7.30
2018-11-25T09:11:53.418Z,7.47
2018-11-25T09:14:27.598Z,7.77
2018-11-25T09:17:01.774Z,7.80
2018-11-25T09:19:35.864Z,8.60
2018-11-25T09:22:09.973Z,8.13
2018-11-25T09:24:44.136Z,8.60
2018-11-25T09:27:18.146Z,7.57
2018-11-25T09:29:52.239Z,7.67
2018-11-25T09:32:27.090Z,7.60
2018-11-25T09:35:01.205Z,7.50
2018-11-25T09:37:36.007Z,7.70
2018-11-25T09:40:10.085Z,7.00
2018-11-25T09:42:44.211Z,7.57
2018-11-25T09:45:18.329Z,6.57
2018-11-25T09:47:52.435Z,6.67
2018-11-25T09:50:26.495Z,6.57
2018-11-25T09:53:00.555Z,5.93
2018-11-25T09:55:34.608Z,6.17
2018-11-25T09:58:08.704Z,5.43
2018-11-25T10:00:43.542Z,5.60
2018-11-25T10:03:17.526Z,5.80
2018-11-25T10:05:51.626Z,6.90
2018-11-25T10:08:25.666Z,6.80
2018-11-25T10:11:00.501Z,6.10
2018-11-25T10:13:34.596Z,7.20
2018-11-25T10:16:08.515Z,6.77
2018-11-25T10:18:42.559Z,7.07
2018-11-25T10:21:16.654Z,6.17
2018-11-25T10:23:50.742Z,6.50
2018-11-25T10:26:24.862Z,6.90
2018-11-25T10:28:58.802Z,7.23
2018-11-25T10:31:32.895Z,8.00
2018-11-25T10:34:06.905Z,6.10
2018-11-25T10:36:40.911Z,10.73
2018-11-25T10:39:15.030Z,6.57
2018-11-25T10:41:49.191Z,9.70
2018-11-25T10:44:23.379Z,6.00
2018-11-25T10:46:57.522Z,13.87
2018-11-25T10:49:31.513Z,13.60
2018-11-25T10:52:05.549Z,10.47
2018-11-25T10:54:40.448Z,7.17
2018-11-25T10:57:14.355Z,13.90
2018-11-25T10:59:48.457Z,10.90
2018-11-25T11:02:23.303Z,7.00
2018-11-25T11:04:57.400Z,5.93
2018-11-25T11:07:32.191Z,6.07
2018-11-25T11:10:06.317Z,6.60
2018-11-25T11:12:40.374Z,6.80
2018-11-25T11:15:14.451Z,6.00
2018-11-25T11:17:48.492Z,6.57
2018-11-25T11:20:23.209Z,6.73
2018-11-25T11:22:57.315Z,9.20
2018-11-25T11:25:31.341Z,7.20
2018-11-25T11:28:05.218Z,9.53
2018-11-25T11:30:39.270Z,9.03
2018-11-25T11:33:13.257Z,7.97
2018-11-25T11:35:47.247Z,7.90
2018-11-25T11:38:21.268Z,7.70
2018-11-25T11:40:55.198Z,7.97
2018-11-25T11:43:29.322Z,7.70
2018-11-25T11:46:03.300Z,8.57
2018-11-25T11:48:38.145Z,7.67
2018-11-25T11:51:12.322Z,8.37
2018-11-25T11:53:46.371Z,9.10
2018-11-25T11:56:20.520Z,7.93
2018-11-25T11:58:54.572Z,8.87
2018-11-25T12:01:28.715Z,9.60
2018-11-25T12:04:02.726Z,9.00
2018-11-25T12:06:36.727Z,9.37
2018-11-25T12:09:10.782Z,8.63
2018-11-25T12:11:45.602Z,9.80
2018-11-25T12:14:19.614Z,9.40
2018-11-25T12:16:53.728Z,9.27
2018-11-25T12:19:28.674Z,9.30
2018-11-25T12:22:03.641Z,9.33
2018-11-25T12:24:37.651Z,9.73
2018-11-25T12:27:11.678Z,9.90
2018-11-25T12:29:45.794Z,8.90
2018-11-25T12:32:19.876Z,9.70
2018-11-25T12:34:53.901Z,8.63
2018-11-25T12:37:27.966Z,9.07
2018-11-25T12:40:01.973Z,8.53
2018-11-25T12:42:36.089Z,8.33
2018-11-25T12:45:10.169Z,7.60
2018-11-25T12:47:44.316Z,7.77
2018-11-25T12:50:18.467Z,7.77
2018-11-25T12:52:52.639Z,7.97
2018-11-25T12:55:27.477Z,10.00
2018-11-25T12:58:01.607Z,8.20
2018-11-25T13:00:36.417Z,8.70
2018-11-25T13:03:11.267Z,8.77
2018-11-25T13:05:46.670Z,7.97
2018-11-25T13:08:20.275Z,8.00
2018-11-25T13:10:54.216Z,7.87
2018-11-25T13:13:28.958Z,8.60
2018-11-25T13:16:02.908Z,7.93
2018-11-25T13:18:37.778Z,8.37
2018-11-25T13:21:11.869Z,7.93
2018-11-25T13:23:45.996Z,8.97
2018-11-25T13:26:19.927Z,7.80
2018-11-25T13:28:54.842Z,7.27
2018-11-25T13:31:28.973Z,7.73
2018-11-25T13:34:02.968Z,8.07
2018-11-25T13:36:37.796Z,8.33
2018-11-25T13:39:12.635Z,7.07
2018-11-25T13:41:46.711Z,7.60
2018-11-25T13:44:21.503Z,7.10
2018-11-25T13:46:55.663Z,7.77
2018-11-25T13:49:29.799Z,7.67
2018-11-25T13:52:03.867Z,7.60
2018-11-25T13:54:37.880Z,7.50
2018-11-25T13:57:12.739Z,7.37
2018-11-25T13:59:46.783Z,8.23
2018-11-25T14:02:21.618Z,7.33
2018-11-25T14:04:55.699Z,8.40
2018-11-25T14:07:29.843Z,7.93
2018-11-25T14:10:04.763Z,7.17
2018-11-25T14:12:38.868Z,7.63
2018-11-25T14:15:13.702Z,7.73
2018-11-25T14:17:47.850Z,7.93
2018-11-25T14:20:21.887Z,8.67
2018-11-25T14:22:55.913Z,8.00
2018-11-25T14:25:30.028Z,8.60
2018-11-25T14:28:04.188Z,8.87
2018-11-25T14:30:38.205Z,8.63
2018-11-25T14:33:12.252Z,9.27
2018-11-25T14:35:46.303Z,8.90
2018-11-25T14:38:21.115Z,9.30
2018-11-25T14:40:55.235Z,9.97
2018-11-25T14:43:29.354Z,8.90
2018-11-25T14:46:03.437Z,9.80
2018-11-25T14:48:37.336Z,9.37
2018-11-25T14:51:11.461Z,9.27
2018-11-25T14:53:45.669Z,11.30
2018-11-25T14:56:19.621Z,13.60
2018-11-25T14:58:53.718Z,16.43
2018-11-25T15:01:27.778Z,18.07
2018-11-25T15:04:01.903Z,17.47
2018-11-25T15:06:35.988Z,12.33
2018-11-25T15:09:10.023Z,14.37
2018-11-25T15:11:44.803Z,17.90
2018-11-25T15:14:18.762Z,16.83
2018-11-25T15:16:52.952Z,17.83
2018-11-25T15:19:27.032Z,18.10
2018-11-25T15:24:41.971Z,15.17
2018-11-25T15:27:15.971Z,14.33
2018-11-25T15:29:50.033Z,13.70
2018-11-25T15:32:24.899Z,13.00
2018-11-25T15:34:59.004Z,15.03
2018-11-25T15:37:33.001Z,15.93
2018-11-25T15:40:07.138Z,18.57
2018-11-25T15:42:41.267Z,14.37
2018-11-25T15:45:21.718Z,14.17
2018-11-25T15:48:08.530Z,14.70
2018-11-25T15:56:16.133Z,13.97
2018-11-25T15:58:55.185Z,17.77
2018-11-25T16:01:33.760Z,15.63
2018-11-25T16:04:23.576Z,16.53
2018-11-25T16:07:02.674Z,13.83
2018-11-25T16:09:45.405Z,11.37
2018-11-25T16:15:19.332Z,11.13
2018-11-25T16:17:57.847Z,11.03
2018-11-25T16:20:42.405Z,12.27
2018-11-25T16:23:29.550Z,11.10
2018-11-25T16:26:07.211Z,10.60
2018-11-25T16:28:45.857Z,10.67
2018-11-25T16:31:25.643Z,11.90
2018-11-25T16:34:03.130Z,10.63
2018-11-25T16:45:11.860Z,11.27
2018-11-25T16:47:48.551Z,11.13
2018-11-25T16:50:27.996Z,10.93
2018-11-25T16:53:05.881Z,11.50
2018-11-25T16:58:41.750Z,10.77
2018-11-25T17:01:20.152Z,11.30
2018-11-25T17:04:06.150Z,11.37
2018-11-25T17:06:45.575Z,12.00
2018-11-25T17:09:23.168Z,10.33
2018-11-25T17:11:59.757Z,12.43
2018-11-25T17:14:35.839Z,12.93
2018-11-25T17:17:15.045Z,11.63
2018-11-25T17:19:51.164Z,11.93
2018-11-25T17:22:26.307Z,11.57
2018-11-25T17:25:03.734Z,11.23
2018-11-25T17:27:46.290Z,12.87
2018-11-25T17:30:24.781Z,12.60
2018-11-25T17:33:08.725Z,11.43
2018-11-25T17:35:45.204Z,11.23
2018-11-25T17:38:21.576Z,13.67
2018-11-25T17:40:59.666Z,12.97
2018-11-25T17:43:40.145Z,12.27
2018-11-25T17:46:17.310Z,12.10
2018-11-25T17:48:54.307Z,12.77
2018-11-25T17:51:31.542Z,12.57
2018-11-25T17:54:19.651Z,13.40
2018-11-25T17:56:55.133Z,12.57
2018-11-25T17:59:35.394Z,12.07
2018-11-25T18:02:18.176Z,12.93
2018-11-25T18:04:56.753Z,13.13
2018-11-25T18:07:33.321Z,12.43
2018-11-25T18:10:17.195Z,12.93
2018-11-25T18:12:55.303Z,12.83
2018-11-25T18:15:40.873Z,13.20
2018-11-25T18:18:18.397Z,13.73
2018-11-25T18:21:00.890Z,13.23
2018-11-25T18:23:43.575Z,16.17
2018-11-25T18:26:17.799Z,13.23
2018-11-25T18:28:52.108Z,13.07
2018-11-25T18:31:26.224Z,14.33
2018-11-25T18:34:00.622Z,14.17
2018-11-25T18:36:34.776Z,13.73
2018-11-25T18:39:08.812Z,15.10
2018-11-25T18:41:43.117Z,12.93
2018-11-25T18:44:17.301Z,14.33
2018-11-25T18:46:51.389Z,14.17
2018-11-25T18:49:25.779Z,14.50
2018-11-25T18:52:05.132Z,13.50
2018-11-25T18:54:34.811Z,13.57
2018-11-25T18:57:09.000Z,13.10
2018-11-25T18:59:43.244Z,12.80
2018-11-25T19:02:18.254Z,12.37
2018-11-25T19:04:52.467Z,13.67
2018-11-25T19:07:26.859Z,13.17
2018-11-25T19:10:00.945Z,13.20
2018-11-25T19:12:35.131Z,15.07
2018-11-25T19:15:09.614Z,13.57
2018-11-25T19:17:43.544Z,19.27
2018-11-25T19:20:17.816Z,16.40
2018-11-25T19:22:51.815Z,14.70
2018-11-25T19:25:25.838Z,13.77
2018-11-25T19:28:00.144Z,14.67
2018-11-25T19:30:34.560Z,14.30
2018-11-25T19:33:17.684Z,14.90
2018-11-25T19:35:52.250Z,14.70
2018-11-25T19:38:27.258Z,15.87
2018-11-25T19:41:01.389Z,14.17
2018-11-25T19:43:44.512Z,14.63
2018-11-25T19:46:19.143Z,15.13
2018-11-25T19:48:53.777Z,15.03
2018-11-25T19:51:29.272Z,15.20
2018-11-25T19:54:03.395Z,15.20
2018-11-25T19:56:38.629Z,17.60
2018-11-25T19:59:12.955Z,16.27
2018-11-25T20:01:47.511Z,14.47
2018-11-25T20:04:22.656Z,13.50
2018-11-25T20:06:56.833Z,14.37
2018-11-25T20:09:31.770Z,13.77
2018-11-25T20:12:05.796Z,13.63
2018-11-25T20:14:40.846Z,13.43
2018-11-25T20:17:15.269Z,13.17
2018-11-25T20:19:50.304Z,12.50
2018-11-25T20:22:24.430Z,13.20
2018-11-25T20:24:58.508Z,13.27
2018-11-25T20:27:32.597Z,13.53
2018-11-25T20:30:06.584Z,13.50
2018-11-25T20:32:41.343Z,12.80
2018-11-25T20:35:15.314Z,12.67
2018-11-25T20:37:49.488Z,13.53
2018-11-25T20:40:23.480Z,13.53
2018-11-25T20:42:58.323Z,12.50
2018-11-25T20:45:38.461Z,13.33
2018-11-25T20:48:07.277Z,14.63
2018-11-25T20:50:41.379Z,12.63
2018-11-25T20:53:15.664Z,13.73
2018-11-25T20:55:49.619Z,13.87
2018-11-25T20:58:23.961Z,13.13
2018-11-25T21:00:58.245Z,13.53
2018-11-25T21:03:32.547Z,12.63
2018-11-25T21:06:06.688Z,12.63
2018-11-25T21:08:40.745Z,14.53
2018-11-25T21:11:14.808Z,12.17
2018-11-25T21:13:48.968Z,13.97
2018-11-25T21:16:24.140Z,13.13
2018-11-25T21:18:58.490Z,12.70
2018-11-25T21:21:32.474Z,12.60
2018-11-25T21:24:07.043Z,12.93
2018-11-25T21:26:41.180Z,13.00
2018-11-25T21:29:16.509Z,13.50
2018-11-25T21:31:49.547Z,13.67
2018-11-25T21:34:23.707Z,13.50
2018-11-25T21:36:58.316Z,13.10
2018-11-25T21:39:32.601Z,14.13
2018-11-25T21:42:07.069Z,13.90
2018-11-25T21:44:42.943Z,13.70
2018-11-25T21:47:16.965Z,13.37
2018-11-25T21:49:50.967Z,12.47
2018-11-25T21:52:25.742Z,13.30
2018-11-25T21:54:59.944Z,13.47
2018-11-25T21:57:34.746Z,13.37
2018-11-25T22:00:09.143Z,13.00
2018-11-25T22:02:43.662Z,13.90
2018-11-25T22:05:17.966Z,13.13
2018-11-25T22:07:53.542Z,12.40
2018-11-25T22:10:27.719Z,12.07
2018-11-25T22:13:01.796Z,13.23
2018-11-25T22:15:35.979Z,12.93
2018-11-25T22:18:10.215Z,11.87
2018-11-25T22:20:45.075Z,11.63
2018-11-25T22:23:20.076Z,11.20
2018-11-25T22:25:53.951Z,12.60
2018-11-25T22:28:28.226Z,11.53
2018-11-25T22:31:02.359Z,10.67
2018-11-25T22:33:37.318Z,12.00
2018-11-25T22:36:12.222Z,10.00
2018-11-25T22:38:46.332Z,10.47
2018-11-25T22:41:20.419Z,11.53
2018-11-25T22:43:54.759Z,11.63
2018-11-25T22:46:29.566Z,11.03
2018-11-25T22:49:03.868Z,10.40
2018-11-25T22:51:38.818Z,10.00
2018-11-25T22:54:13.632Z,10.80
2018-11-25T22:56:47.784Z,10.43
2018-11-25T22:59:21.928Z,10.90
2018-11-25T23:01:56.013Z,10.17
2018-11-25T23:07:52.137Z,15.15
2018-11-25T23:10:26.838Z,12.27
2018-11-25T23:13:00.817Z,10.87
2018-11-25T23:15:35.661Z,10.80
2018-11-25T23:18:10.406Z,11.37
2018-11-25T23:20:44.287Z,10.60
2018-11-25T23:23:19.091Z,10.77
2018-11-25T23:25:53.195Z,11.13
2018-11-25T23:28:27.225Z,10.33
2018-11-25T23:31:02.039Z,9.73
2018-11-25T23:33:36.179Z,10.77
2018-11-25T23:36:10.225Z,9.23
2018-11-25T23:38:44.348Z,9.57
2018-11-25T23:41:18.370Z,9.43
2018-11-25T23:43:52.470Z,9.53
2018-11-25T23:46:26.603Z,9.70
2018-11-25T23:49:00.687Z,10.03
2018-11-25T23:51:35.434Z,9.93
2018-11-25T23:54:10.295Z,10.90
2018-11-25T23:56:44.426Z,10.83
2018-11-25T23:59:19.328Z,10.10
